Corneil Estates, New York
Current Conditions -  °F | °C
As of 12:02 PM on Thursday 27 Nov 2014 (Local Time) from KISP Reporting Station
Light Rain Light Rain  
Wind Chill: 30°   Ceiling: 1600
Heat Index: 37°   Visibility: 10mi
Dew Point: 31°   Wind: 9mph
Humidity: 79%   Direction: 340°NNW
Pressure: 29.96"   Gusts: NA
Location:  40.6448°N, 73.1603°W
Report Text: KISP 271702Z 34008KT 10SM -RA BKN016 OVC022 03/M01 A2996 RMK AO2 P0000 T00281006
Loading
Personal Weather Stations






























Interactive Weather Map New forecast layout! Learn more

10-Day Weather Forecast

Advertisements
Track Severe Weather on mobile